createdAt,value
2023-04-27T00:01:43.955Z,13.18
2023-04-27T00:04:11.601Z,14.05
2023-04-27T00:06:39.084Z,10.00
2023-04-27T00:09:06.794Z,11.82
2023-04-27T00:11:34.157Z,11.82
2023-04-27T00:14:01.477Z,8.80
2023-04-27T00:16:28.830Z,10.50
2023-04-27T00:18:56.155Z,9.88
2023-04-27T00:21:23.547Z,11.80
2023-04-27T00:23:50.850Z,17.27
2023-04-27T00:26:18.277Z,11.57
2023-04-27T00:28:48.947Z,9.95
2023-04-27T00:31:16.485Z,12.85
2023-04-27T00:33:43.845Z,10.88
2023-04-27T00:36:11.377Z,11.77
2023-04-27T00:38:38.702Z,9.88
2023-04-27T00:41:07.713Z,13.43
2023-04-27T00:43:42.557Z,15.25
2023-04-27T00:46:11.072Z,16.50
2023-04-27T00:48:38.528Z,11.68
2023-04-27T00:51:06.340Z,9.10
2023-04-27T00:53:34.309Z,16.63
2023-04-27T00:56:01.668Z,11.13
2023-04-27T00:58:29.608Z,10.00
2023-04-27T01:00:57.072Z,13.43
2023-04-27T01:03:24.549Z,10.70
2023-04-27T01:05:52.101Z,16.55
2023-04-27T01:08:19.408Z,14.23
2023-04-27T01:10:46.720Z,10.70
2023-04-27T01:13:14.039Z,11.02
2023-04-27T01:15:41.369Z,12.95
2023-04-27T01:18:10.311Z,10.32
2023-04-27T01:20:38.614Z,9.10
2023-04-27T01:23:06.437Z,10.55
2023-04-27T01:25:33.767Z,10.80
2023-04-27T01:28:03.000Z,11.20
2023-04-27T01:30:30.685Z,10.77
2023-04-27T01:32:59.551Z,14.13
2023-04-27T01:35:28.381Z,8.32
2023-04-27T01:38:00.364Z,11.63
2023-04-27T01:40:27.793Z,13.18
2023-04-27T01:42:55.091Z,10.55
2023-04-27T01:45:22.502Z,10.60
2023-04-27T01:47:53.279Z,8.95
2023-04-27T01:50:21.294Z,9.52
2023-04-27T01:52:48.622Z,11.35
2023-04-27T01:55:16.013Z,14.85
2023-04-27T01:57:43.674Z,12.32
2023-04-27T02:00:12.566Z,11.68
2023-04-27T02:02:51.191Z,9.48
2023-04-27T02:05:19.246Z,9.82
2023-04-27T02:07:47.675Z,11.45
2023-04-27T02:10:15.888Z,15.73
2023-04-27T02:12:43.611Z,9.40
2023-04-27T02:15:11.007Z,11.43
2023-04-27T02:17:39.552Z,13.13
2023-04-27T02:20:07.608Z,14.02
2023-04-27T02:22:34.959Z,11.50
2023-04-27T02:25:02.980Z,11.02
2023-04-27T02:27:30.556Z,12.07
2023-04-27T02:29:58.696Z,9.27
2023-04-27T02:32:27.211Z,11.73
2023-04-27T02:34:55.414Z,11.48
2023-04-27T02:37:23.012Z,11.25
2023-04-27T02:39:50.600Z,12.75
2023-04-27T02:42:18.298Z,15.75
2023-04-27T02:44:45.675Z,17.95
2023-04-27T02:47:13.181Z,13.02
2023-04-27T02:49:43.186Z,16.67
2023-04-27T02:52:10.640Z,12.90
2023-04-27T02:54:38.083Z,14.50
2023-04-27T02:57:05.494Z,16.38
2023-04-27T02:59:33.362Z,11.75
2023-04-27T03:02:00.921Z,13.73
2023-04-27T03:04:28.490Z,19.42
2023-04-27T03:06:56.441Z,22.80
2023-04-27T03:09:23.829Z,14.85
2023-04-27T03:11:51.195Z,15.52
2023-04-27T03:14:18.523Z,18.52
2023-04-27T03:16:46.191Z,17.60
2023-04-27T03:19:14.193Z,17.48
2023-04-27T03:21:41.890Z,16.75
2023-04-27T03:24:09.872Z,12.32
2023-04-27T03:26:37.236Z,16.85
2023-04-27T03:29:04.787Z,16.55
2023-04-27T03:31:32.189Z,18.73
2023-04-27T03:33:59.531Z,12.75
2023-04-27T03:36:27.184Z,15.02
2023-04-27T03:38:54.467Z,21.23
2023-04-27T03:41:22.116Z,15.70
2023-04-27T03:43:50.824Z,16.02
2023-04-27T03:46:18.225Z,16.23
2023-04-27T03:48:47.148Z,15.98
2023-04-27T03:51:15.154Z,14.30
2023-04-27T03:53:44.756Z,19.67
2023-04-27T03:56:12.090Z,19.40
2023-04-27T03:58:39.385Z,19.10
2023-04-27T04:01:21.995Z,18.52
2023-04-27T04:03:51.744Z,17.70
2023-04-27T04:06:19.163Z,14.88
2023-04-27T04:08:46.506Z,16.48
2023-04-27T04:11:13.975Z,18.00
2023-04-27T04:13:42.131Z,14.60
2023-04-27T04:16:09.716Z,24.67
2023-04-27T04:18:37.267Z,13.88
2023-04-27T04:21:06.430Z,18.58
2023-04-27T04:23:33.921Z,14.02
2023-04-27T04:26:02.282Z,19.55
2023-04-27T04:28:33.626Z,20.50
2023-04-27T04:31:01.566Z,17.25
2023-04-27T04:33:29.190Z,19.33
2023-04-27T04:35:56.686Z,17.08
2023-04-27T04:38:24.125Z,16.67
2023-04-27T04:40:52.936Z,14.40
2023-04-27T04:43:21.479Z,17.80
2023-04-27T04:45:49.144Z,16.60
2023-04-27T04:48:16.748Z,15.60
2023-04-27T04:50:46.157Z,15.00
2023-04-27T04:53:14.068Z,15.95
2023-04-27T04:55:42.524Z,12.70
2023-04-27T04:58:11.010Z,12.95
2023-04-27T05:00:39.020Z,15.20
2023-04-27T05:03:07.602Z,15.80
2023-04-27T05:05:35.252Z,13.38
2023-04-27T05:08:02.930Z,14.73
2023-04-27T05:10:30.345Z,16.50
2023-04-27T05:12:57.894Z,12.57
2023-04-27T05:15:25.354Z,16.60
2023-04-27T05:17:54.259Z,16.67
2023-04-27T05:20:21.708Z,16.13
2023-04-27T05:22:49.080Z,19.52
2023-04-27T05:25:16.500Z,15.48
2023-04-27T05:27:43.832Z,14.75
2023-04-27T05:30:11.809Z,21.00
2023-04-27T05:32:39.577Z,14.43
2023-04-27T05:35:07.340Z,19.17
2023-04-27T05:37:34.737Z,21.17
2023-04-27T05:40:02.142Z,17.15
2023-04-27T05:42:29.437Z,18.83
2023-04-27T05:44:56.725Z,17.10
2023-04-27T05:47:24.495Z,18.70
2023-04-27T05:49:52.737Z,18.60
2023-04-27T05:52:20.693Z,20.45
2023-04-27T05:54:48.454Z,17.27
2023-04-27T05:57:16.150Z,15.00
2023-04-27T05:59:43.440Z,16.38
2023-04-27T06:02:11.014Z,17.88
2023-04-27T06:04:38.575Z,16.02
2023-04-27T06:07:10.321Z,14.30
2023-04-27T06:09:38.083Z,23.77
2023-04-27T06:12:06.595Z,20.23
2023-04-27T06:14:34.851Z,17.85
2023-04-27T06:17:02.816Z,17.15
2023-04-27T06:19:30.112Z,20.45
2023-04-27T06:21:57.423Z,22.45
2023-04-27T06:24:24.746Z,17.55
2023-04-27T06:26:52.082Z,21.10
2023-04-27T06:29:19.429Z,22.65
2023-04-27T06:31:47.311Z,22.85
2023-04-27T06:34:14.740Z,26.38
2023-04-27T06:36:42.041Z,20.23
2023-04-27T06:39:09.413Z,19.45
2023-04-27T06:41:36.704Z,25.27
2023-04-27T06:44:04.063Z,27.65
2023-04-27T06:46:31.438Z,16.83
2023-04-27T06:48:58.806Z,23.90
2023-04-27T06:51:26.761Z,23.80
2023-04-27T06:53:54.208Z,19.55
2023-04-27T06:56:22.455Z,18.80
2023-04-27T06:58:49.772Z,22.17
2023-04-27T07:01:17.146Z,20.95
2023-04-27T07:03:44.663Z,23.27
2023-04-27T07:06:12.069Z,21.42
2023-04-27T07:08:39.412Z,24.85
2023-04-27T07:11:06.790Z,20.27
2023-04-27T07:13:34.186Z,23.70
2023-04-27T07:16:01.705Z,18.42
2023-04-27T07:18:29.176Z,18.60
2023-04-27T07:20:58.087Z,20.17
2023-04-27T07:23:25.779Z,21.83
2023-04-27T07:25:54.182Z,30.45
2023-04-27T07:28:22.065Z,17.52
2023-04-27T07:30:50.629Z,19.98
2023-04-27T07:33:18.018Z,17.58
2023-04-27T07:35:45.652Z,15.85
2023-04-27T07:38:12.985Z,20.25
2023-04-27T07:40:40.695Z,17.02
2023-04-27T07:43:09.476Z,15.43
2023-04-27T07:45:39.048Z,29.50
2023-04-27T07:48:06.764Z,21.25
2023-04-27T07:50:34.171Z,13.35
2023-04-27T07:53:01.487Z,11.73
2023-04-27T07:55:28.819Z,12.73
2023-04-27T07:57:56.772Z,11.90
2023-04-27T08:00:25.526Z,14.40
2023-04-27T08:02:53.746Z,14.23
2023-04-27T08:05:22.117Z,8.73
2023-04-27T08:07:50.110Z,15.75
2023-04-27T08:10:18.099Z,17.65
2023-04-27T08:12:45.479Z,13.20
2023-04-27T08:15:13.049Z,12.73
2023-04-27T08:17:43.738Z,22.27
2023-04-27T08:20:11.731Z,13.90
2023-04-27T08:22:40.570Z,13.05
2023-04-27T08:25:08.874Z,17.35
2023-04-27T08:27:40.095Z,20.77
2023-04-27T08:30:08.573Z,17.98
2023-04-27T08:32:36.195Z,23.50
2023-04-27T08:35:04.481Z,18.23
2023-04-27T08:37:32.362Z,18.15
2023-04-27T08:39:59.868Z,16.67
2023-04-27T08:42:27.243Z,24.73
2023-04-27T08:44:54.663Z,19.17
2023-04-27T08:47:31.183Z,18.38
2023-04-27T08:50:07.070Z,18.75
2023-04-27T08:52:34.351Z,14.82
2023-04-27T08:55:01.736Z,20.88
2023-04-27T08:57:29.082Z,16.60
2023-04-27T09:00:07.968Z,18.02
2023-04-27T09:02:35.615Z,16.10
2023-04-27T09:05:04.168Z,15.10
2023-04-27T09:07:31.643Z,18.23
2023-04-27T09:10:05.924Z,11.63
2023-04-27T09:12:33.262Z,16.80
2023-04-27T09:15:06.176Z,18.42
2023-04-27T09:17:33.856Z,14.65
2023-04-27T09:20:13.494Z,16.08
2023-04-27T09:22:47.957Z,12.23
2023-04-27T09:25:31.861Z,17.05
2023-04-27T09:27:59.900Z,12.23
2023-04-27T09:30:28.004Z,11.20
2023-04-27T09:33:01.571Z,16.13
2023-04-27T09:35:30.450Z,14.33
2023-04-27T09:37:58.088Z,13.98
2023-04-27T09:40:27.977Z,10.25
2023-04-27T09:43:01.615Z,16.30
2023-04-27T09:45:29.247Z,11.93
2023-04-27T09:47:56.919Z,10.93
2023-04-27T09:50:24.608Z,11.60
2023-04-27T09:52:52.081Z,15.10
2023-04-27T09:55:31.376Z,14.23
2023-04-27T09:58:20.840Z,14.57
2023-04-27T10:01:10.499Z,10.32
2023-04-27T10:04:00.910Z,14.27
2023-04-27T10:06:43.507Z,14.55
2023-04-27T10:09:11.568Z,13.25
2023-04-27T10:11:46.524Z,9.77
2023-04-27T10:14:18.456Z,13.82
2023-04-27T10:16:56.576Z,11.00
2023-04-27T10:19:24.493Z,11.82
2023-04-27T10:21:57.065Z,13.68
2023-04-27T10:24:40.927Z,10.23
2023-04-27T10:27:11.215Z,17.10
2023-04-27T10:29:42.288Z,10.20
2023-04-27T10:32:21.509Z,13.30
2023-04-27T10:34:49.473Z,13.02
2023-04-27T10:37:17.096Z,12.13
2023-04-27T10:39:49.078Z,14.23
2023-04-27T10:42:30.558Z,11.38
2023-04-27T10:44:58.077Z,9.23
2023-04-27T10:47:25.804Z,9.68
2023-04-27T10:49:54.533Z,9.98
2023-04-27T10:52:22.013Z,13.55
2023-04-27T10:54:49.423Z,12.27
2023-04-27T10:57:16.804Z,10.18
2023-04-27T11:00:02.233Z,11.55
2023-04-27T11:02:29.799Z,10.43
2023-04-27T11:04:57.616Z,11.50
2023-04-27T11:07:29.145Z,8.82
2023-04-27T11:09:56.627Z,7.80
2023-04-27T11:12:24.240Z,11.13
2023-04-27T11:14:58.044Z,9.10
2023-04-27T11:17:32.585Z,9.88
2023-04-27T11:20:00.109Z,13.30
2023-04-27T11:27:40.489Z,9.40
2023-04-27T11:30:37.157Z,8.18
2023-04-27T11:33:08.275Z,8.20
2023-04-27T11:35:35.876Z,10.25
2023-04-27T11:38:03.373Z,10.38
2023-04-27T11:40:31.032Z,7.47
2023-04-27T11:43:04.416Z,9.85
2023-04-27T11:45:32.172Z,9.73
2023-04-27T11:47:59.690Z,9.80
2023-04-27T11:50:27.629Z,8.35
2023-04-27T11:52:55.962Z,7.32
2023-04-27T11:55:24.827Z,8.85
2023-04-27T11:57:59.028Z,9.77
2023-04-27T12:00:26.496Z,11.00
2023-04-27T12:02:54.020Z,10.98
2023-04-27T12:05:22.065Z,8.27
2023-04-27T12:07:49.587Z,7.40
2023-04-27T12:10:17.587Z,13.35
2023-04-27T12:12:44.894Z,9.10
2023-04-27T12:15:17.724Z,10.13
2023-04-27T12:17:48.217Z,7.53
2023-04-27T12:20:15.633Z,9.25
2023-04-27T12:22:42.965Z,8.77
2023-04-27T12:25:10.648Z,7.82
2023-04-27T12:27:37.959Z,10.95
2023-04-27T12:30:06.187Z,4.38
2023-04-27T12:32:33.640Z,5.78
2023-04-27T12:35:01.073Z,8.63
2023-04-27T12:37:28.342Z,6.43
2023-04-27T12:39:56.228Z,6.88
2023-04-27T12:42:24.353Z,9.40
2023-04-27T12:44:52.149Z,10.50
2023-04-27T12:47:43.010Z,9.60
2023-04-27T12:50:10.618Z,6.93
2023-04-27T12:52:38.190Z,10.23
2023-04-27T12:55:06.397Z,10.35
2023-04-27T12:57:33.830Z,6.40
2023-04-27T13:00:02.030Z,10.60
2023-04-27T13:02:29.640Z,7.72
2023-04-27T13:04:57.142Z,8.48
2023-04-27T13:07:24.578Z,11.55
2023-04-27T13:09:51.952Z,8.00
2023-04-27T13:12:19.273Z,6.85
2023-04-27T13:14:46.830Z,7.72
2023-04-27T13:17:14.425Z,8.57
2023-04-27T13:20:10.393Z,8.48
2023-04-27T13:22:39.660Z,5.85
2023-04-27T13:25:07.319Z,6.28
2023-04-27T13:27:34.635Z,7.35
2023-04-27T13:30:02.023Z,7.57
2023-04-27T13:32:29.450Z,17.25
2023-04-27T13:34:56.764Z,6.60
2023-04-27T13:37:24.195Z,7.07
2023-04-27T13:39:51.836Z,6.78
2023-04-27T13:42:19.203Z,8.30
2023-04-27T13:44:46.781Z,6.38
2023-04-27T13:47:14.353Z,6.55
2023-04-27T13:49:46.137Z,4.60
2023-04-27T13:52:14.098Z,7.63
2023-04-27T13:54:41.919Z,5.15
2023-04-27T13:57:09.345Z,6.22
2023-04-27T13:59:36.686Z,7.90
2023-04-27T14:02:04.170Z,5.00
2023-04-27T14:04:31.605Z,3.72
2023-04-27T14:06:59.108Z,4.57
2023-04-27T14:10:44.086Z,23.40
2023-04-27T14:16:10.436Z,8.35
2023-04-27T14:25:40.024Z,5.55
2023-04-27T14:28:07.625Z,7.97
2023-04-27T14:30:35.189Z,5.72
2023-04-27T14:33:03.094Z,7.55
2023-04-27T14:35:30.777Z,5.47
2023-04-27T14:38:02.348Z,5.43
2023-04-27T14:40:30.846Z,8.68
2023-04-27T14:42:58.574Z,5.68
2023-04-27T14:45:30.975Z,5.78
2023-04-27T14:48:04.609Z,5.00
2023-04-27T14:50:32.175Z,7.43
2023-04-27T14:52:59.515Z,5.47
2023-04-27T14:55:27.271Z,6.53
2023-04-27T14:57:54.775Z,9.63
2023-04-27T15:00:22.231Z,7.90
2023-04-27T15:02:49.771Z,5.65
2023-04-27T15:05:17.192Z,7.07
2023-04-27T15:07:44.600Z,5.78
2023-04-27T15:10:11.989Z,8.02
2023-04-27T15:12:39.404Z,6.45
2023-04-27T15:15:10.493Z,8.73
2023-04-27T15:17:38.178Z,6.65
2023-04-27T15:20:06.485Z,7.50
2023-04-27T15:22:34.129Z,7.85
2023-04-27T15:25:01.641Z,6.22
2023-04-27T15:27:28.977Z,6.55
2023-04-27T15:29:58.127Z,6.95
2023-04-27T15:32:30.042Z,8.85
2023-04-27T15:34:57.837Z,6.78
2023-04-27T15:37:28.538Z,4.80
2023-04-27T15:39:56.064Z,5.60
2023-04-27T15:42:23.930Z,9.65
2023-04-27T15:44:51.341Z,5.72
2023-04-27T15:47:18.695Z,6.50
2023-04-27T15:49:56.872Z,8.45
2023-04-27T15:52:27.156Z,5.78
2023-04-27T15:54:55.188Z,7.60
2023-04-27T15:57:22.676Z,9.88
2023-04-27T15:59:50.100Z,10.73
2023-04-27T16:02:17.938Z,5.32
2023-04-27T16:04:45.496Z,5.28
2023-04-27T16:07:12.839Z,6.63
2023-04-27T16:09:40.482Z,8.43
2023-04-27T16:12:07.914Z,6.35
2023-04-27T16:14:35.360Z,8.27
2023-04-27T16:17:02.765Z,7.22
2023-04-27T16:19:30.209Z,5.85
2023-04-27T16:21:57.563Z,5.30
2023-04-27T16:24:25.438Z,4.25
2023-04-27T16:26:52.874Z,5.38
2023-04-27T16:29:20.189Z,6.68
2023-04-27T16:31:50.211Z,7.47
2023-04-27T16:34:17.651Z,9.82
2023-04-27T16:36:46.841Z,6.90
2023-04-27T16:39:14.571Z,13.05
2023-04-27T16:41:42.320Z,10.00
2023-04-27T16:44:10.822Z,10.25
2023-04-27T16:46:38.288Z,9.02
2023-04-27T16:49:05.849Z,12.13
2023-04-27T16:51:33.755Z,11.23
2023-04-27T16:54:01.187Z,9.65
2023-04-27T16:56:33.829Z,9.93
2023-04-27T16:59:01.381Z,7.30
2023-04-27T17:01:30.072Z,9.30
2023-04-27T17:03:58.560Z,9.07
2023-04-27T17:06:27.852Z,6.93
2023-04-27T17:08:58.265Z,9.82
2023-04-27T17:11:26.485Z,7.65
2023-04-27T17:13:54.010Z,8.88
2023-04-27T17:16:21.945Z,9.80
2023-04-27T17:18:49.521Z,9.13
2023-04-27T17:21:17.470Z,7.70
2023-04-27T17:40:44.638Z,12.88
2023-04-27T17:43:12.029Z,8.40
2023-04-27T17:45:39.583Z,12.10
2023-04-27T17:48:07.403Z,13.80
2023-04-27T17:50:36.004Z,15.75
2023-04-27T17:53:03.448Z,8.32
2023-04-27T17:55:31.234Z,8.13
2023-04-27T17:57:58.625Z,14.15
2023-04-27T18:00:25.975Z,10.43
2023-04-27T18:02:53.415Z,11.35
2023-04-27T18:05:20.936Z,11.02
2023-04-27T18:07:50.043Z,15.95
2023-04-27T18:10:17.788Z,12.75
2023-04-27T18:12:45.085Z,8.35
2023-04-27T18:15:12.454Z,11.10
2023-04-27T18:17:39.950Z,13.27
2023-04-27T18:20:10.155Z,12.25
2023-04-27T18:22:39.905Z,9.35
2023-04-27T18:25:09.024Z,13.38
2023-04-27T18:27:37.718Z,7.95
2023-04-27T18:30:06.311Z,11.45
2023-04-27T18:32:34.223Z,11.30
2023-04-27T18:35:02.334Z,11.75
2023-04-27T18:37:29.666Z,7.93
2023-04-27T18:39:57.022Z,13.52
2023-04-27T18:42:24.400Z,13.60
2023-04-27T18:44:54.820Z,12.98
2023-04-27T18:47:22.189Z,16.73
2023-04-27T18:49:49.501Z,11.85
2023-04-27T18:52:16.791Z,13.73
2023-04-27T18:54:44.193Z,11.60
2023-04-27T18:57:11.535Z,12.05
2023-04-27T18:59:39.510Z,14.98
2023-04-27T19:02:07.215Z,10.88
2023-04-27T19:04:35.359Z,11.00
2023-04-27T19:07:02.845Z,15.90
2023-04-27T19:09:30.250Z,11.10
2023-04-27T19:12:02.910Z,14.88
2023-04-27T19:14:31.597Z,12.65
2023-04-27T19:16:59.041Z,14.82
2023-04-27T19:19:26.762Z,15.90
2023-04-27T19:21:54.455Z,17.02
2023-04-27T19:24:22.284Z,12.40
2023-04-27T19:26:49.789Z,15.70
2023-04-27T19:29:17.634Z,13.07
2023-04-27T19:31:45.325Z,12.20
2023-04-27T19:34:12.690Z,10.32
2023-04-27T19:36:40.192Z,11.00
2023-04-27T19:39:07.676Z,9.55
2023-04-27T19:41:35.019Z,10.43
2023-04-27T19:44:02.475Z,9.98
2023-04-27T19:46:31.124Z,13.80
2023-04-27T19:48:58.532Z,9.70
2023-04-27T19:51:26.575Z,14.55
2023-04-27T19:53:53.967Z,13.15
2023-04-27T19:56:21.599Z,14.15
2023-04-27T19:58:48.908Z,11.68
2023-04-27T20:01:16.519Z,11.00
2023-04-27T20:03:44.207Z,9.73
2023-04-27T20:06:11.862Z,12.07
2023-04-27T20:08:39.329Z,14.25
2023-04-27T20:11:06.673Z,14.30
2023-04-27T20:13:34.001Z,10.70
2023-04-27T20:16:01.488Z,13.35
2023-04-27T20:18:31.860Z,15.80
2023-04-27T20:20:59.486Z,16.10
2023-04-27T20:23:26.790Z,12.05
2023-04-27T20:25:54.097Z,19.65
2023-04-27T20:28:21.457Z,17.27
2023-04-27T20:30:48.745Z,15.98
2023-04-27T20:33:16.222Z,10.73
2023-04-27T20:35:43.650Z,13.60
2023-04-27T20:38:11.836Z,12.60
2023-04-27T20:40:39.593Z,12.27
2023-04-27T20:43:07.967Z,14.43
2023-04-27T20:45:35.596Z,15.20
2023-04-27T20:48:03.408Z,12.15
2023-04-27T20:50:30.946Z,19.35
2023-04-27T20:52:58.372Z,18.02
2023-04-27T20:55:26.041Z,16.20
2023-04-27T20:57:53.381Z,12.75
2023-04-27T21:00:21.074Z,14.65
2023-04-27T21:02:48.566Z,14.25
2023-04-27T21:05:15.995Z,12.40
2023-04-27T21:07:43.859Z,13.98
2023-04-27T21:10:12.720Z,11.38
2023-04-27T21:12:40.054Z,11.57
2023-04-27T21:15:07.966Z,11.80
2023-04-27T21:17:35.776Z,15.38
2023-04-27T21:20:03.201Z,13.85
2023-04-27T21:22:30.902Z,14.70
2023-04-27T21:24:58.177Z,10.70
2023-04-27T21:27:25.630Z,12.05
2023-04-27T21:29:53.343Z,12.43
2023-04-27T21:32:20.738Z,9.52
2023-04-27T21:34:48.239Z,10.30
2023-04-27T21:37:15.540Z,12.27
2023-04-27T21:39:42.875Z,15.70
2023-04-27T21:42:10.216Z,12.13
2023-04-27T21:44:37.551Z,12.85
2023-04-27T21:47:04.863Z,12.90
2023-04-27T21:49:32.204Z,15.63
2023-04-27T21:51:59.501Z,15.75
2023-04-27T21:54:26.882Z,12.95
2023-04-27T21:56:54.208Z,14.82
2023-04-27T21:59:21.592Z,10.95
2023-04-27T22:01:48.922Z,14.60
2023-04-27T22:04:17.067Z,11.98
2023-04-27T22:06:44.675Z,10.40
2023-04-27T22:09:12.292Z,11.20
2023-04-27T22:11:39.753Z,15.38
2023-04-27T22:14:07.018Z,10.75
2023-04-27T22:16:34.571Z,13.88
2023-04-27T22:19:01.940Z,13.90
2023-04-27T22:21:29.280Z,13.13
2023-04-27T22:23:56.603Z,11.82
2023-04-27T22:26:23.921Z,12.43
2023-04-27T22:28:51.434Z,10.45
2023-04-27T22:31:18.746Z,12.30
2023-04-27T22:33:46.078Z,14.70
2023-04-27T22:36:13.423Z,15.63
2023-04-27T22:38:40.696Z,16.95
2023-04-27T22:41:07.963Z,11.57
2023-04-27T22:43:35.435Z,11.65
2023-04-27T22:46:02.722Z,13.00
2023-04-27T22:48:30.136Z,11.38
2023-04-27T22:50:57.464Z,11.60
2023-04-27T22:53:24.768Z,11.82
2023-04-27T22:55:52.108Z,13.70
2023-04-27T22:58:19.429Z,14.95
2023-04-27T23:00:46.881Z,11.95
2023-04-27T23:03:14.544Z,12.00
2023-04-27T23:05:42.474Z,14.48
2023-04-27T23:08:09.779Z,12.10
2023-04-27T23:10:38.847Z,8.40
2023-04-27T23:13:07.285Z,8.13
2023-04-27T23:15:34.602Z,9.60
2023-04-27T23:18:01.974Z,9.73
2023-04-27T23:20:29.479Z,9.93
2023-04-27T23:22:58.463Z,7.38
2023-04-27T23:25:25.895Z,12.02
2023-04-27T23:27:53.328Z,8.13
2023-04-27T23:30:21.849Z,11.45
2023-04-27T23:32:49.415Z,6.85
2023-04-27T23:35:16.758Z,8.75
2023-04-27T23:37:44.384Z,7.53
2023-04-27T23:40:12.290Z,10.68
2023-04-27T23:42:39.649Z,12.27
2023-04-27T23:45:07.504Z,7.07
2023-04-27T23:47:34.913Z,7.28
2023-04-27T23:50:02.968Z,9.82
2023-04-27T23:52:30.296Z,7.95
2023-04-27T23:54:58.111Z,6.47
2023-04-27T23:57:25.458Z,7.90
2023-04-27T23:59:52.991Z,7.10
